METAR LOCAUX

2022/01/20 03:00 LFST 200300Z AUTO 17005KT 140V200 9999 -RA OVC022 03/01 Q1026 TEMPO 2000 RASN OVC005
2022/01/20 02:50 EDSB 200250Z AUTO 21008KT 9999 // FEW007/// OVC016/// 02/01 Q1026
2022/01/20 03:00 LFGA 200300Z AUTO VRB03KT 9999 FEW031 BKN041 BKN047 03/01 Q1026
www.noaa.gov

Ne pas utiliser pour préparer ou effectuer un vol: Utilisez la documentation officielle disponible sur aviation.meteo.fr (Aéroweb)


"Le soleil du matin ne dure pas forcément toute la journée."

Animation satellite IR

Meteociel.fr

"Derrière chaque nuage se cache le ciel bleu."

Radar pluie

Infoclimat.fr

"Si tu veux l’arc-en-ciel, tu dois supporter la pluie."
Dolly Parton

Nébulosité (octas)

Meteociel.fr

"Le soleil est souvent obscurci par les nuages et la raison par les passions."
Démophile

Impacts de foudre

www.meteo60.fr

"Celui que frappe la foudre n'entend pas le tonnerre."

Vigilance météo

vigilance-meteo.fr

"Tout nuage n'enfante pas une tempête."
William Shakespeare

TAF locaux

2022/01/19 18:21 TAF LFST 191700Z 1918/2018 19006KT 9999 BKN030 PROB40 TEMPO 1922/2003 4500 -RASN OVC012 BECMG 2012/2015 30010KT
2022/01/19 18:30 TAF EDSB 191700Z 1918/2018 22010KT 9999 OVC025 TEMPO 1920/1923 4500 RA BKN014 TEMPO 1923/2005 4000 SNRA BKN012 PROB40 TEMPO 1923/2004 2500 SN OVC006 TEMPO 2005/2012 2500 SHSNRA BKN006 BKN020CB BECMG 2011/2013 28005KT PROB30 TEMPO 2012/2015 SHRA BKN020CB BECMG 2015/2017 21004KT
www.noaa.gov

Ne pas utiliser pour préparer ou effectuer un vol: Utilisez la documentation officielle disponible sur aviation.meteo.fr (Aéroweb)


"Les jours où le ciel est gris, le soleil n'a pas disparu à tout jamais."
Arnaud Desjardins

Prévisions 7 jours


Meteoblue.com

"Quand les crapauds chantent, le beau temps s'avance !"